Yokota Air Base
RJTY : now visible

Airfield :











YOU CAN JOIN US ON...

 
LOGIN :

Register | Disclaimer

   EN    FR    IT 

 









Legend :    VFR   Marginal VFR   IFR   Intensive IFR   Very Intensive IFR
Visi :
Ceiling :
>= 8 km
>= 3000ft
5 to 8 km
1000 to 3000 ft
1500m to 5 km
500 to 1000 ft
800 to 1500m
200 to 500 ft
< 800m
< 200 ft
Symbols :   Thunderstorms  Fog  Heavy snow  Heavy precipitations  Wind > 20 kt






- Airport Elevation : 463 ft
- IATA code : OKO


RJTY - Yokota Air Base

CURRENT METAR :
  • 191456Z AUTO 29004KT 10SM CLR 05/M01 A3038 RMK AO2 SLP296 T00481008 401201021 52006 FZRANO $

EXPIRED METARs :
  • 191356Z AUTO 00000KT 10SM CLR 05/M01 A3037 RMK AO2 SLP292 T00491013 FZRANO $
  • 191256Z AUTO 00000KT 10SM CLR 05/M01 A3037 RMK AO2 SLP293 T00521008 FZRANO $

TAF TAF RJTY
Valid from the 19 at 13:00 until the 20 at 19:00 UTC


191300Z 1913/2019 VRB06KT 9999 FEW030 FEW200 QNH3034INS
BECMG 2001/2002 09012KT 9999 SCT030 QNH3047INS
BECMG 2010/2011 VRB06KT 9999 BKN030 QNH3045INS TX13/2004Z TN00/1921Z LAST NO AMDS AFT 1913 NEXT 1921



MET'MAP, your aeronautical weather chart ! - Copyright ORBIFLY December 2007 - Disclaimer

ORBIFLY MET'MAP TEAM :

Programming & Development : Alexandra Zaïnal
Concept & original design : Baudouin d'Aumeries
Assistance for programming : Marc-Olivier Méhu
Technical & hardware support : Manuel Goepfert

Contact : metmap@orbifly.com




SOURCES & CREDITS :

   NOAA       Earth
Advisory